Time,TemperatureF,DewpointF,PressureIn,WindDirection,WindDirectionDegrees,WindSpeedMPH,WindSpeedGustMPH,Humidity,HourlyPrecipIn,Conditions,Clouds,dailyrainin,SolarRadiationWatts/m^2,SoftwareType,DateUTC
2013-07-10 00:06:00,77.6,75.0,29.80,SSW,203,0.0,-999.0,91,-99.99,,,0.00,0,weatherlink.com 1.10,2013-07-10 05:06:00,
2013-07-10 00:21:00,77.2,75.0,29.80,SSW,207,0.0,-999.0,92,-99.99,,,0.00,0,weatherlink.com 1.10,2013-07-10 05:21:00,
2013-07-10 00:36:00,77.2,75.0,29.80,SSW,207,0.0,-999.0,92,-99.99,,,0.00,0,weatherlink.com 1.10,2013-07-10 05:36:00,
2013-07-10 00:51:00,77.2,75.0,29.80,SSW,207,0.0,-999.0,93,-99.99,,,0.00,0,weatherlink.com 1.10,2013-07-10 05:51:00,
2013-07-10 01:06:00,76.7,75.0,29.80,SSW,207,0.0,-999.0,93,-99.99,,,0.00,0,weatherlink.com 1.10,2013-07-10 06:06:00,
2013-07-10 01:21:00,76.7,75.0,29.79,SSW,207,0.0,-999.0,93,-99.99,,,0.00,0,weatherlink.com 1.10,2013-07-10 06:21:00,
2013-07-10 01:36:00,76.5,74.0,29.79,SSW,207,6.0,-999.0,93,-99.99,,,0.00,0,weatherlink.com 1.10,2013-07-10 06:36:00,
2013-07-10 01:51:00,76.8,75.0,29.79,SSW,207,3.0,-999.0,94,-99.99,,,0.00,0,weatherlink.com 1.10,2013-07-10 06:51:00,
2013-07-10 02:06:00,76.5,74.0,29.79,SSW,207,3.0,-999.0,93,-99.99,,,0.00,0,weatherlink.com 1.10,2013-07-10 07:06:00,
2013-07-10 02:21:00,76.1,74.0,29.78,SSW,207,3.0,-999.0,94,-99.99,,,0.00,0,weatherlink.com 1.10,2013-07-10 07:21:00,
2013-07-10 02:36:00,76.3,75.0,29.78,SSW,207,4.0,-999.0,94,-99.99,,,0.00,0,weatherlink.com 1.10,2013-07-10 07:36:00,
2013-07-10 02:51:00,76.3,75.0,29.77,SSW,207,5.0,-999.0,94,-99.99,,,0.00,0,weatherlink.com 1.10,2013-07-10 07:51:00,
2013-07-10 03:06:00,76.3,75.0,29.77,SSW,213,3.0,-999.0,94,-99.99,,,0.00,0,weatherlink.com 1.10,2013-07-10 08:06:00,
2013-07-10 03:21:00,76.3,75.0,29.77,SSW,213,5.0,-999.0,94,-99.99,,,0.00,0,weatherlink.com 1.10,2013-07-10 08:21:00,
2013-07-10 03:36:00,76.0,74.0,29.77,SSW,213,5.0,-999.0,94,-99.99,,,0.00,0,weatherlink.com 1.10,2013-07-10 08:36:00,
2013-07-10 03:51:00,76.0,74.0,29.78,SW,231,5.0,-999.0,94,-99.99,,,0.00,0,weatherlink.com 1.10,2013-07-10 08:51:00,
2013-07-10 04:06:00,76.1,74.0,29.78,WSW,244,3.0,-999.0,94,-99.99,,,0.00,0,weatherlink.com 1.10,2013-07-10 09:06:00,
2013-07-10 04:21:00,76.0,74.0,29.78,WNW,286,3.0,-999.0,94,-99.99,,,0.00,0,weatherlink.com 1.10,2013-07-10 09:21:00,
2013-07-10 04:36:00,75.8,74.0,29.78,WNW,288,2.0,-999.0,94,-99.99,,,0.00,0,weatherlink.com 1.10,2013-07-10 09:36:00,
2013-07-10 04:51:00,76.1,74.0,29.78,WNW,303,0.0,-999.0,94,-99.99,,,0.00,0,weatherlink.com 1.10,2013-07-10 09:51:00,
2013-07-10 05:06:00,76.7,75.0,29.78,NNW,331,8.0,-999.0,94,-99.99,,,0.00,0,weatherlink.com 1.10,2013-07-10 10:06:00,
2013-07-10 05:21:00,76.1,74.0,29.77,NNW,344,6.0,-999.0,93,-99.99,,,0.00,0,weatherlink.com 1.10,2013-07-10 10:21:00,
2013-07-10 05:36:00,76.0,74.0,29.78,North,355,5.0,-999.0,92,-99.99,,,0.00,5,weatherlink.com 1.10,2013-07-10 10:36:00,
2013-07-10 05:51:00,75.6,73.0,29.78,NNW,329,8.0,-999.0,91,-99.99,,,0.00,12,weatherlink.com 1.10,2013-07-10 10:51:00,
2013-07-10 06:06:00,75.4,72.0,29.79,North,350,8.0,-999.0,89,-99.99,,,0.00,26,weatherlink.com 1.10,2013-07-10 11:06:00,
2013-07-10 06:21:00,75.6,72.0,29.80,NNW,336,8.0,-999.0,87,-99.99,,,0.00,39,weatherlink.com 1.10,2013-07-10 11:21:00,
2013-07-10 06:36:00,75.6,71.0,29.80,NW,323,4.0,-999.0,85,-99.99,,,0.00,74,weatherlink.com 1.10,2013-07-10 11:36:00,
2013-07-10 06:51:00,75.8,71.0,29.80,NW,309,7.0,-999.0,84,-99.99,,,0.00,54,weatherlink.com 1.10,2013-07-10 11:51:00,
2013-07-10 07:06:00,76.1,71.0,29.80,NNW,329,11.0,-999.0,83,-99.99,,,0.00,158,weatherlink.com 1.10,2013-07-10 12:06:00,
2013-07-10 07:21:00,77.0,71.0,29.82,NNW,336,5.0,-999.0,81,-99.99,,,0.00,200,weatherlink.com 1.10,2013-07-10 12:21:00,
2013-07-10 07:36:00,77.0,70.0,29.82,NNW,336,10.0,-999.0,80,-99.99,,,0.00,281,weatherlink.com 1.10,2013-07-10 12:36:00,
2013-07-10 07:51:00,77.4,70.0,29.83,NNW,344,7.0,-999.0,78,-99.99,,,0.00,144,weatherlink.com 1.10,2013-07-10 12:51:00,
2013-07-10 08:06:00,78.1,71.0,29.83,North,355,10.0,-999.0,78,-99.99,,,0.00,461,weatherlink.com 1.10,2013-07-10 13:06:00,
2013-07-10 08:21:00,78.5,70.0,29.84,NNW,329,12.0,-999.0,75,-99.99,,,0.00,450,weatherlink.com 1.10,2013-07-10 13:21:00,
2013-07-10 08:36:00,79.0,70.0,29.84,NNW,341,6.0,-999.0,73,-99.99,,,0.00,454,weatherlink.com 1.10,2013-07-10 13:36:00,
2013-07-10 08:51:00,79.0,69.0,29.84,North,351,10.0,-999.0,72,-99.99,,,0.00,490,weatherlink.com 1.10,2013-07-10 13:51:00,
2013-07-10 09:07:00,79.0,68.0,29.84,North,355,6.0,-999.0,69,-99.99,,,0.00,538,weatherlink.com 1.10,2013-07-10 14:07:00,
2013-07-10 09:22:00,79.2,68.0,29.84,North,351,10.0,-999.0,68,-99.99,,,0.00,577,weatherlink.com 1.10,2013-07-10 14:22:00,
2013-07-10 09:37:00,79.6,68.0,29.84,NNW,344,8.0,-999.0,68,-99.99,,,0.00,619,weatherlink.com 1.10,2013-07-10 14:37:00,
2013-07-10 09:52:00,79.8,67.0,29.84,North,360,12.0,-999.0,66,-99.99,,,0.00,656,weatherlink.com 1.10,2013-07-10 14:52:00,
2013-07-10 10:07:00,80.1,68.0,29.85,North,350,11.0,-999.0,66,-99.99,,,0.00,694,weatherlink.com 1.10,2013-07-10 15:07:00,
2013-07-10 10:22:00,80.9,68.0,29.86,NW,323,8.0,-999.0,65,-99.99,,,0.00,729,weatherlink.com 1.10,2013-07-10 15:22:00,
2013-07-10 10:37:00,81.2,67.0,29.87,NNW,337,6.0,-999.0,63,-99.99,,,0.00,758,weatherlink.com 1.10,2013-07-10 15:37:00,
2013-07-10 10:52:00,81.4,68.0,29.87,NNW,334,4.0,-999.0,63,-99.99,,,0.00,789,weatherlink.com 1.10,2013-07-10 15:52:00,
2013-07-10 11:07:00,81.2,67.0,29.88,North,360,5.0,-999.0,62,-99.99,,,0.00,828,weatherlink.com 1.10,2013-07-10 16:07:00,
2013-07-10 11:22:00,81.6,68.0,29.89,NNW,347,8.0,-999.0,63,-99.99,,,0.00,983,weatherlink.com 1.10,2013-07-10 16:22:00,
2013-07-10 11:37:00,82.2,68.0,29.89,NNW,332,10.0,-999.0,63,-99.99,,,0.00,972,weatherlink.com 1.10,2013-07-10 16:37:00,
2013-07-10 11:52:00,83.2,69.0,29.89,NW,326,5.0,-999.0,62,-99.99,,,0.00,1046,weatherlink.com 1.10,2013-07-10 16:52:00,
2013-07-10 12:07:00,82.0,67.0,29.89,NW,315,3.0,-999.0,60,-99.99,,,0.00,1067,weatherlink.com 1.10,2013-07-10 17:07:00,
2013-07-10 12:22:00,82.4,69.0,29.89,NW,311,6.0,-999.0,63,-99.99,,,0.00,503,weatherlink.com 1.10,2013-07-10 17:22:00,
2013-07-10 12:37:00,81.8,67.0,29.89,NNW,342,7.0,-999.0,62,-99.99,,,0.00,299,weatherlink.com 1.10,2013-07-10 17:37:00,
2013-07-10 12:52:00,82.2,68.0,29.89,NW,318,8.0,-999.0,62,-99.99,,,0.00,1025,weatherlink.com 1.10,2013-07-10 17:52:00,
2013-07-10 13:07:00,82.2,67.0,29.88,NNW,329,7.0,-999.0,61,-99.99,,,0.00,225,weatherlink.com 1.10,2013-07-10 18:07:00,
2013-07-10 13:22:00,82.0,66.0,29.88,NW,324,7.0,-999.0,59,-99.99,,,0.00,204,weatherlink.com 1.10,2013-07-10 18:22:00,
2013-07-10 13:37:00,83.0,67.0,29.88,NNW,339,12.0,-999.0,58,-99.99,,,0.00,1004,weatherlink.com 1.10,2013-07-10 18:37:00,
2013-07-10 13:52:00,83.6,66.0,29.88,NNW,332,9.0,-999.0,56,-99.99,,,0.00,1021,weatherlink.com 1.10,2013-07-10 18:52:00,
2013-07-10 14:07:00,83.6,65.0,29.88,WNW,295,7.0,-999.0,54,-99.99,,,0.00,944,weatherlink.com 1.10,2013-07-10 19:07:00,
2013-07-10 14:22:00,83.2,66.0,29.88,NNW,329,9.0,-999.0,56,-99.99,,,0.00,179,weatherlink.com 1.10,2013-07-10 19:22:00,
2013-07-10 14:37:00,83.2,66.0,29.88,NNW,346,10.0,-999.0,56,-99.99,,,0.00,911,weatherlink.com 1.10,2013-07-10 19:37:00,
2013-07-10 14:52:00,84.0,66.0,29.88,NNW,332,10.0,-999.0,55,-99.99,,,0.00,919,weatherlink.com 1.10,2013-07-10 19:52:00,
2013-07-10 15:07:00,82.4,66.0,29.88,North,350,4.0,-999.0,58,-99.99,,,0.00,267,weatherlink.com 1.10,2013-07-10 20:07:00,
2013-07-10 15:22:00,82.0,64.0,29.88,NNW,338,10.0,-999.0,55,-99.99,,,0.00,220,weatherlink.com 1.10,2013-07-10 20:22:00,
2013-07-10 15:52:00,82.4,65.0,29.87,NNW,327,10.0,-999.0,56,-99.99,,,0.00,209,weatherlink.com 1.10,2013-07-10 20:52:00,
2013-07-10 16:07:00,82.8,66.0,29.87,NW,309,13.0,-999.0,58,-99.99,,,0.00,740,weatherlink.com 1.10,2013-07-10 21:07:00,
2013-07-10 16:22:00,82.4,63.0,29.87,North,355,7.0,-999.0,52,-99.99,,,0.00,650,weatherlink.com 1.10,2013-07-10 21:22:00,
2013-07-10 16:37:00,82.6,63.0,29.87,NW,314,9.0,-999.0,51,-99.99,,,0.00,617,weatherlink.com 1.10,2013-07-10 21:37:00,
2013-07-10 16:52:00,80.5,64.0,29.87,North,350,12.0,-999.0,57,-99.99,,,0.00,167,weatherlink.com 1.10,2013-07-10 21:52:00,
2013-07-10 17:07:00,80.9,65.0,29.87,NNW,335,10.0,-999.0,58,-99.99,,,0.00,619,weatherlink.com 1.10,2013-07-10 22:07:00,
2013-07-10 17:22:00,81.6,63.0,29.86,NW,315,7.0,-999.0,54,-99.99,,,0.00,533,weatherlink.com 1.10,2013-07-10 22:22:00,
2013-07-10 17:37:00,81.2,62.0,29.87,WNW,303,10.0,-999.0,52,-99.99,,,0.00,448,weatherlink.com 1.10,2013-07-10 22:37:00,
2013-07-10 17:52:00,80.9,60.0,29.86,NW,314,9.0,-999.0,50,-99.99,,,0.00,387,weatherlink.com 1.10,2013-07-10 22:52:00,
2013-07-10 18:07:00,80.7,61.0,29.86,NW,320,9.0,-999.0,52,-99.99,,,0.00,348,weatherlink.com 1.10,2013-07-10 23:07:00,
2013-07-10 18:22:00,80.3,61.0,29.87,NNW,328,9.0,-999.0,52,-99.99,,,0.00,299,weatherlink.com 1.10,2013-07-10 23:22:00,
2013-07-10 18:37:00,79.6,62.0,29.87,NNW,339,9.0,-999.0,55,-99.99,,,0.00,251,weatherlink.com 1.10,2013-07-10 23:37:00,
2013-07-10 18:52:00,78.6,60.0,29.87,NNW,344,13.0,-999.0,53,-99.99,,,0.00,213,weatherlink.com 1.10,2013-07-10 23:52:00,
2013-07-10 19:07:00,78.1,59.0,29.87,NNW,344,6.0,-999.0,52,-99.99,,,0.00,162,weatherlink.com 1.10,2013-07-11 00:07:00,
2013-07-10 19:22:00,76.7,60.0,29.87,North,360,3.0,-999.0,57,-99.99,,,0.00,72,weatherlink.com 1.10,2013-07-11 00:22:00,
2013-07-10 19:38:00,75.4,61.0,29.88,North,355,0.0,-999.0,62,-99.99,,,0.00,42,weatherlink.com 1.10,2013-07-11 00:38:00,
2013-07-10 19:53:00,74.6,62.0,29.89,NNW,342,0.0,-999.0,65,-99.99,,,0.00,32,weatherlink.com 1.10,2013-07-11 00:53:00,
2013-07-10 20:08:00,74.2,63.0,29.89,NNW,331,5.0,-999.0,67,-99.99,,,0.00,23,weatherlink.com 1.10,2013-07-11 01:08:00,
2013-07-10 20:23:00,73.2,63.0,29.89,NNW,336,4.0,-999.0,70,-99.99,,,0.00,12,weatherlink.com 1.10,2013-07-11 01:23:00,
2013-07-10 20:38:00,71.5,63.0,29.89,NNW,343,4.0,-999.0,74,-99.99,,,0.00,5,weatherlink.com 1.10,2013-07-11 01:38:00,
2013-07-10 20:53:00,70.3,62.0,29.89,NNW,339,3.0,-999.0,75,-99.99,,,0.00,0,weatherlink.com 1.10,2013-07-11 01:53:00,
2013-07-10 21:08:00,70.1,62.0,29.90,NNW,340,0.0,-999.0,75,-99.99,,,0.00,0,weatherlink.com 1.10,2013-07-11 02:08:00,
2013-07-10 21:23:00,70.6,62.0,29.91,NNW,340,0.0,-999.0,74,-99.99,,,0.00,0,weatherlink.com 1.10,2013-07-11 02:23:00,
2013-07-10 21:38:00,69.9,61.0,29.92,NNW,340,0.0,-999.0,74,-99.99,,,0.00,0,weatherlink.com 1.10,2013-07-11 02:38:00,
2013-07-10 21:53:00,70.1,61.0,29.92,NNW,342,0.0,-999.0,72,-99.99,,,0.00,0,weatherlink.com 1.10,2013-07-11 02:53:00,
2013-07-10 22:08:00,68.9,61.0,29.92,NNW,342,0.0,-999.0,75,-99.99,,,0.00,0,weatherlink.com 1.10,2013-07-11 03:08:00,
2013-07-10 22:23:00,67.3,61.0,29.93,NNW,344,0.0,-999.0,79,-99.99,,,0.00,0,weatherlink.com 1.10,2013-07-11 03:23:00,
2013-07-10 22:38:00,65.8,61.0,29.94,NNW,344,0.0,-999.0,84,-99.99,,,0.00,0,weatherlink.com 1.10,2013-07-11 03:38:00,
2013-07-10 22:53:00,65.0,61.0,29.94,NNW,344,0.0,-999.0,86,-99.99,,,0.00,0,weatherlink.com 1.10,2013-07-11 03:53:00,
2013-07-10 23:08:00,64.5,61.0,29.94,NNW,344,0.0,-999.0,87,-99.99,,,0.00,0,weatherlink.com 1.10,2013-07-11 04:08:00,
2013-07-10 23:23:00,65.0,61.0,29.94,NNW,344,0.0,-999.0,86,-99.99,,,0.00,0,weatherlink.com 1.10,2013-07-11 04:23:00,
2013-07-10 23:38:00,63.9,60.0,29.94,NNW,344,0.0,-999.0,86,-99.99,,,0.00,0,weatherlink.com 1.10,2013-07-11 04:38:00,
2013-07-10 23:53:00,63.5,60.0,29.95,NNW,344,0.0,-999.0,89,-99.99,,,0.00,0,weatherlink.com 1.10,2013-07-11 04:53:00,